This is the latest recevied weather packets stored in our database for station/object VA7NEZ. If no packets are shown the sender has not sent any weather packets the latest 10 day(s).
| Time | Temp. | Humidity | Pressure | Rain* | Wind** | Luminosity | Snow |
|---|---|---|---|---|---|---|---|
| 1777543566 | 6.11° C | 76% | 1024 hPa | 0 mm | - | - | - |
| 1777543072 | 6.67° C | 70% | 1023.9 hPa | 0 mm | - | - | - |
| 1777542016 | 6.67° C | 69% | 1023.8 hPa | 0 mm | - | - | - |
| 1777541531 | 6.67° C | 69% | 1023.8 hPa | 0 mm | - | - | - |
| 1777540473 | 0° C | 100% | 1023.8 hPa | 0 mm | - | - | - |
| 1777539436 | 7.22° C | 69% | 1023.9 hPa | 0 mm | - | - | - |
| 1777538256 | 0° C | 100% | 1023.5 hPa | 0 mm | - | - | - |
| 1777537158 | 7.78° C | 69% | 1023.4 hPa | 0 mm | - | - | - |
| 1777536607 | 0° C | 100% | 1023.2 hPa | 0 mm | - | - | - |
| 1777536051 | 8.33° C | 65% | 1023.4 hPa | 0 mm | - | - | - |
| 1777535011 | 8.33° C | 65% | 1023.2 hPa | 0 mm | - | - | - |
| 1777534491 | 8.89° C | 64% | 1023 hPa | 0 mm | - | - | - |
| 1777533926 | 8.89° C | 64% | 1023.1 hPa | 0 mm | - | - | - |
| 1777532914 | 9.44° C | 63% | 1022.9 hPa | 0 mm | - | - | - |
| 1777532396 | 9.44° C | 63% | 1022.8 hPa | 0 mm | - | - | - |
| 1777531835 | 9.44° C | 62% | 1023 hPa | 0 mm | - | - | - |
| 1777531276 | 10° C | 63% | 1022.8 hPa | 0 mm | - | - | - |
| 1777530731 | 0° C | 100% | 1022.8 hPa | 0 mm | - | - | - |
| 1777529641 | 10.56° C | 62% | 1022.8 hPa | 0 mm | - | - | - |
| 1777529127 | 10.56° C | 65% | 1022.6 hPa | 0 mm | - | - | - |
| 1777528591 | 11.11° C | 60% | 1022.7 hPa | 0 mm | - | - | - |
| 1777527996 | 11.11° C | 61% | 1022.5 hPa | 0 mm | - | - | - |
| 1777527446 | 11.67° C | 62% | 1022.5 hPa | 0 mm | - | - | - |
| 1777526923 | 11.67° C | 58% | 1022.6 hPa | 0 mm | - | - | - |
| 1777526351 | 12.22° C | 59% | 1022.5 hPa | 0 mm | - | - | - |
* Rain latest hour (hover to see other rain measurements)
** Current wind speed in m/s (hover to see current wind gust speed)